createdAt,value
2018-03-19T00:01:31.323Z,10.10
2018-03-19T00:03:59.576Z,10.25
2018-03-19T00:06:27.838Z,11.85
2018-03-19T00:08:56.862Z,11.40
2018-03-19T00:11:25.137Z,13.77
2018-03-19T00:13:53.391Z,13.45
2018-03-19T00:16:21.663Z,14.35
2018-03-19T00:18:50.679Z,12.73
2018-03-19T00:21:18.944Z,14.85
2018-03-19T00:23:47.196Z,14.05
2018-03-19T00:26:16.223Z,19.87
2018-03-19T00:28:44.474Z,13.68
2018-03-19T00:31:13.519Z,14.63
2018-03-19T00:33:41.775Z,18.12
2018-03-19T00:36:10.023Z,14.50
2018-03-19T00:38:39.056Z,13.55
2018-03-19T00:41:07.299Z,11.40
2018-03-19T00:43:35.557Z,11.85
2018-03-19T00:46:04.569Z,12.80
2018-03-19T00:48:32.831Z,16.45
2018-03-19T00:51:01.840Z,9.93
2018-03-19T00:53:30.099Z,15.63
2018-03-19T00:55:59.111Z,10.13
2018-03-19T00:58:27.380Z,13.35
2018-03-19T01:00:55.626Z,8.80
2018-03-19T01:03:23.878Z,11.80
2018-03-19T01:05:52.142Z,12.35
2018-03-19T01:08:20.395Z,12.32
2018-03-19T01:10:48.666Z,11.68
2018-03-19T01:13:16.919Z,10.93
2018-03-19T01:15:45.939Z,12.27
2018-03-19T01:18:14.196Z,12.00
2018-03-19T01:20:43.221Z,13.50
2018-03-19T01:23:11.482Z,14.50
2018-03-19T01:25:39.734Z,12.77
2018-03-19T01:28:08.759Z,12.85
2018-03-19T01:30:37.022Z,20.10
2018-03-19T01:33:05.278Z,16.50
2018-03-19T01:35:34.301Z,13.43
2018-03-19T01:38:02.551Z,13.27
2018-03-19T01:40:30.808Z,16.17
2018-03-19T01:42:59.070Z,10.85
2018-03-19T01:45:27.327Z,16.15
2018-03-19T01:47:55.587Z,10.07
2018-03-19T01:50:23.840Z,13.68
2018-03-19T01:52:52.111Z,12.48
2018-03-19T01:55:20.362Z,11.43
2018-03-19T01:57:49.386Z,15.18
2018-03-19T02:00:17.647Z,14.38
2018-03-19T02:02:46.669Z,13.48
2018-03-19T02:05:14.933Z,12.85
2018-03-19T02:07:43.195Z,13.90
2018-03-19T02:10:12.232Z,10.82
2018-03-19T02:12:40.487Z,10.75
2018-03-19T02:15:08.746Z,13.32
2018-03-19T02:17:37.006Z,14.20
2018-03-19T02:20:06.024Z,10.25
2018-03-19T02:22:34.285Z,11.25
2018-03-19T02:25:02.542Z,14.25
2018-03-19T02:27:31.571Z,14.18
2018-03-19T02:29:59.824Z,12.98
2018-03-19T02:32:28.842Z,10.77
2018-03-19T02:34:57.100Z,15.13
2018-03-19T02:37:25.351Z,12.52
2018-03-19T02:39:53.607Z,10.32
2018-03-19T02:42:21.863Z,10.43
2018-03-19T02:44:50.121Z,13.75
2018-03-19T02:47:18.376Z,12.50
2018-03-19T02:49:47.402Z,18.15
2018-03-19T02:52:15.651Z,11.23
2018-03-19T02:54:43.914Z,18.30
2018-03-19T02:57:12.930Z,16.08
2018-03-19T02:59:41.200Z,13.73
2018-03-19T03:02:09.451Z,15.70
2018-03-19T03:04:38.470Z,13.15
2018-03-19T03:07:06.731Z,13.95
2018-03-19T03:09:35.747Z,22.33
2018-03-19T03:12:04.008Z,13.88
2018-03-19T03:14:32.259Z,12.95
2018-03-19T03:17:01.286Z,12.10
2018-03-19T03:19:29.535Z,16.35
2018-03-19T03:21:58.557Z,11.35
2018-03-19T03:24:26.819Z,12.65
2018-03-19T03:26:55.843Z,11.32
2018-03-19T03:29:24.094Z,16.00
2018-03-19T03:31:52.351Z,14.10
2018-03-19T03:34:21.459Z,10.80
2018-03-19T03:36:49.708Z,9.90
2018-03-19T03:39:17.972Z,12.68
2018-03-19T03:41:46.220Z,11.43
2018-03-19T03:44:14.470Z,19.55
2018-03-19T03:46:42.728Z,14.43
2018-03-19T03:49:11.841Z,14.27
2018-03-19T03:51:40.102Z,13.50
2018-03-19T03:54:09.132Z,23.17
2018-03-19T03:56:37.387Z,14.45
2018-03-19T03:59:05.643Z,19.20
2018-03-19T04:01:34.664Z,14.70
2018-03-19T04:04:02.931Z,14.07
2018-03-19T04:06:31.186Z,15.05
2018-03-19T04:09:00.210Z,19.60
2018-03-19T04:11:28.460Z,14.05
2018-03-19T04:13:56.718Z,15.90
2018-03-19T04:16:25.735Z,12.75
2018-03-19T04:18:53.995Z,14.00
2018-03-19T04:21:23.011Z,16.45
2018-03-19T04:23:51.274Z,11.40
2018-03-19T04:26:20.294Z,14.23
2018-03-19T04:28:48.558Z,16.25
2018-03-19T04:31:16.818Z,11.85
2018-03-19T04:33:45.842Z,12.10
2018-03-19T04:36:14.094Z,15.32
2018-03-19T04:38:42.358Z,14.45
2018-03-19T04:41:11.387Z,12.27
2018-03-19T04:43:39.646Z,14.80
2018-03-19T04:46:07.902Z,20.23
2018-03-19T04:48:36.948Z,11.52
2018-03-19T04:51:05.214Z,12.63
2018-03-19T04:53:33.467Z,11.50
2018-03-19T04:56:01.733Z,16.67
2018-03-19T04:58:29.979Z,14.50
2018-03-19T05:00:58.244Z,16.80
2018-03-19T05:03:26.490Z,14.30
2018-03-19T05:05:54.746Z,12.27
2018-03-19T05:08:23.004Z,16.60
2018-03-19T05:10:52.035Z,16.35
2018-03-19T05:13:20.291Z,12.23
2018-03-19T05:15:48.554Z,11.43
2018-03-19T05:18:16.813Z,12.23
2018-03-19T05:20:45.835Z,15.93
2018-03-19T05:23:14.085Z,13.57
2018-03-19T05:25:43.104Z,17.60
2018-03-19T05:28:11.362Z,15.52
2018-03-19T05:30:39.624Z,16.25
2018-03-19T05:33:08.668Z,15.88
2018-03-19T05:35:36.905Z,14.48
2018-03-19T05:38:06.015Z,15.48
2018-03-19T05:40:34.271Z,15.48
2018-03-19T05:43:03.287Z,18.87
2018-03-19T05:45:31.543Z,13.90
2018-03-19T05:48:00.569Z,19.48
2018-03-19T05:50:28.931Z,18.45
2018-03-19T05:52:57.195Z,13.65
2018-03-19T05:55:25.445Z,13.05
2018-03-19T05:57:53.707Z,10.48
2018-03-19T06:00:21.967Z,14.68
2018-03-19T06:02:50.231Z,16.40
2018-03-19T06:05:18.492Z,10.30
2018-03-19T06:07:46.761Z,11.93
2018-03-19T06:10:15.011Z,14.70
2018-03-19T06:12:44.023Z,13.93
2018-03-19T06:15:12.292Z,15.48
2018-03-19T06:17:41.315Z,13.00
2018-03-19T06:20:09.570Z,15.20
2018-03-19T06:22:37.825Z,13.48
2018-03-19T06:25:06.847Z,14.70
2018-03-19T06:27:35.101Z,15.30
2018-03-19T06:30:03.392Z,13.70
2018-03-19T06:32:31.666Z,22.10
2018-03-19T06:34:59.934Z,15.90
2018-03-19T06:37:28.196Z,18.12
2018-03-19T06:39:57.238Z,15.57
2018-03-19T06:42:25.493Z,16.60
2018-03-19T06:44:53.742Z,14.23
2018-03-19T06:47:22.773Z,11.98
2018-03-19T06:49:51.060Z,13.75
2018-03-19T06:52:19.290Z,14.30
2018-03-19T06:54:48.326Z,13.65
2018-03-19T06:57:16.586Z,19.27
2018-03-19T06:59:44.854Z,14.27
2018-03-19T07:02:13.115Z,16.45
2018-03-19T07:04:42.135Z,20.45
2018-03-19T07:07:10.397Z,14.93
2018-03-19T07:09:38.650Z,19.55
2018-03-19T07:12:07.675Z,15.45
2018-03-19T07:14:35.931Z,16.30
2018-03-19T07:17:04.207Z,17.70
2018-03-19T07:19:32.463Z,10.60
2018-03-19T07:22:01.484Z,12.93
2018-03-19T07:24:29.751Z,13.80
2018-03-19T07:26:58.011Z,14.45
2018-03-19T07:29:27.047Z,20.37
2018-03-19T07:31:55.299Z,13.27
2018-03-19T07:34:23.572Z,13.02
2018-03-19T07:36:51.837Z,21.02
2018-03-19T07:39:20.859Z,11.30
2018-03-19T07:41:49.124Z,13.35
2018-03-19T07:44:17.385Z,20.45
2018-03-19T07:46:46.410Z,14.52
2018-03-19T07:49:14.677Z,13.93
2018-03-19T07:51:42.936Z,12.98
2018-03-19T07:54:11.203Z,17.40
2018-03-19T07:56:40.224Z,17.60
2018-03-19T07:59:08.487Z,14.93
2018-03-19T08:01:36.751Z,15.73
2018-03-19T08:04:05.018Z,12.93
2018-03-19T08:06:34.048Z,13.35
2018-03-19T08:09:02.308Z,12.88
2018-03-19T08:11:30.562Z,23.98
2018-03-19T08:13:59.604Z,19.58
2018-03-19T08:16:27.859Z,13.82
2018-03-19T08:18:56.140Z,13.98
2018-03-19T08:21:24.408Z,12.95
2018-03-19T08:23:52.679Z,17.37
2018-03-19T08:26:20.947Z,19.02
2018-03-19T08:28:49.213Z,18.90
2018-03-19T08:31:18.249Z,15.63
2018-03-19T08:33:46.511Z,15.68
2018-03-19T08:36:14.788Z,14.95
2018-03-19T08:38:43.054Z,19.02
2018-03-19T08:41:11.322Z,13.60
2018-03-19T08:43:39.591Z,15.00
2018-03-19T08:46:07.869Z,16.45
2018-03-19T08:48:36.134Z,15.35
2018-03-19T08:51:05.178Z,18.20
2018-03-19T08:53:33.448Z,17.77
2018-03-19T08:56:01.722Z,16.50
2018-03-19T08:58:30.014Z,15.77
2018-03-19T09:00:58.251Z,13.82
2018-03-19T09:03:26.519Z,20.52
2018-03-19T09:05:54.793Z,13.07
2018-03-19T09:08:23.059Z,17.33
2018-03-19T09:10:52.106Z,16.37
2018-03-19T09:13:20.375Z,16.92
2018-03-19T09:15:48.645Z,16.70
2018-03-19T09:18:16.922Z,15.73
2018-03-19T09:20:45.190Z,16.12
2018-03-19T09:23:13.455Z,16.52
2018-03-19T09:25:41.724Z,15.38
2018-03-19T09:28:09.987Z,18.57
2018-03-19T09:30:39.011Z,16.90
2018-03-19T09:33:07.274Z,16.43
2018-03-19T09:35:35.544Z,15.90
2018-03-19T09:38:03.814Z,19.23
2018-03-19T09:40:32.069Z,14.80
2018-03-19T09:43:01.090Z,11.90
2018-03-19T09:45:29.351Z,16.93
2018-03-19T09:47:58.384Z,21.63
2018-03-19T09:50:26.637Z,14.20
2018-03-19T09:52:54.919Z,14.50
2018-03-19T09:55:23.182Z,17.73
2018-03-19T09:57:51.442Z,15.43
2018-03-19T10:00:20.471Z,17.00
2018-03-19T10:02:48.730Z,19.13
2018-03-19T10:05:16.994Z,21.00
2018-03-19T10:07:46.007Z,14.40
2018-03-19T10:10:14.289Z,17.40
2018-03-19T10:12:42.547Z,15.30
2018-03-19T10:15:10.806Z,15.27
2018-03-19T10:17:39.842Z,19.37
2018-03-19T10:20:08.099Z,18.53
2018-03-19T10:22:36.362Z,15.70
2018-03-19T10:25:04.637Z,18.12
2018-03-19T10:27:32.945Z,18.75
2018-03-19T10:30:01.175Z,17.58
2018-03-19T10:32:30.203Z,18.45
2018-03-19T10:34:58.464Z,16.23
2018-03-19T10:37:26.723Z,16.08
2018-03-19T10:39:55.756Z,11.02
2018-03-19T10:42:24.021Z,17.58
2018-03-19T10:44:52.275Z,18.90
2018-03-19T10:47:20.541Z,15.98
2018-03-19T10:49:49.598Z,20.75
2018-03-19T10:52:17.846Z,16.17
2018-03-19T10:54:46.094Z,19.08
2018-03-19T10:57:14.355Z,16.92
2018-03-19T10:59:43.380Z,15.10
2018-03-19T11:05:24.131Z,17.35
2018-03-19T11:07:58.780Z,21.20
2018-03-19T11:10:27.795Z,15.90
2018-03-19T11:12:56.047Z,16.40
2018-03-19T11:15:25.071Z,15.37
2018-03-19T11:17:53.322Z,17.30
2018-03-19T11:20:21.573Z,15.10
2018-03-19T11:22:49.817Z,15.43
2018-03-19T11:25:18.064Z,14.80
2018-03-19T11:27:46.315Z,10.67
2018-03-19T11:30:15.326Z,17.70
2018-03-19T11:32:43.571Z,20.07
2018-03-19T11:35:12.595Z,17.53
2018-03-19T11:37:40.842Z,19.80
2018-03-19T11:40:09.086Z,14.70
2018-03-19T11:42:37.336Z,19.43
2018-03-19T11:45:05.598Z,16.60
2018-03-19T11:47:33.839Z,15.80
2018-03-19T11:50:02.108Z,18.23
2018-03-19T11:52:30.355Z,18.10
2018-03-19T11:54:58.606Z,15.93
2018-03-19T11:57:26.862Z,21.77
2018-03-19T11:59:55.891Z,20.50
2018-03-19T12:02:24.149Z,17.43
2018-03-19T12:04:52.410Z,30.03
2018-03-19T12:07:20.662Z,18.70
2018-03-19T12:09:49.685Z,16.37
2018-03-19T12:12:17.949Z,14.90
2018-03-19T12:14:46.954Z,15.17
2018-03-19T12:17:15.213Z,17.40
2018-03-19T12:19:44.227Z,15.80
2018-03-19T12:22:12.479Z,19.97
2018-03-19T12:24:41.491Z,16.43
2018-03-19T12:27:09.748Z,14.00
2018-03-19T12:29:38.759Z,15.30
2018-03-19T12:32:07.012Z,14.90
2018-03-19T12:34:36.023Z,15.10
2018-03-19T12:37:04.276Z,12.10
2018-03-19T12:39:32.513Z,14.70
2018-03-19T12:42:00.771Z,13.53
2018-03-19T12:44:29.022Z,16.37
2018-03-19T12:46:57.275Z,17.20
2018-03-19T12:49:25.594Z,13.93
2018-03-19T12:51:53.784Z,15.50
2018-03-19T12:54:22.027Z,16.37
2018-03-19T12:56:50.278Z,13.50
2018-03-19T12:59:19.315Z,15.10
2018-03-19T13:01:47.564Z,18.40
2018-03-19T13:04:16.578Z,16.90
2018-03-19T13:06:44.823Z,19.83
2018-03-19T13:09:13.848Z,15.50
2018-03-19T13:11:42.106Z,16.53
2018-03-19T13:14:10.358Z,18.27
2018-03-19T13:16:38.614Z,14.37
2018-03-19T13:19:06.870Z,13.57
2018-03-19T13:21:35.128Z,18.10
2018-03-19T13:24:03.366Z,14.43
2018-03-19T13:26:32.392Z,18.37
2018-03-19T13:29:00.642Z,17.30
2018-03-19T13:31:29.659Z,18.10
2018-03-19T13:33:57.906Z,16.40
2018-03-19T13:36:26.932Z,14.77
2018-03-19T13:38:55.179Z,16.33
2018-03-19T13:41:24.199Z,17.43
2018-03-19T13:43:52.446Z,16.27
2018-03-19T13:46:21.503Z,12.97
2018-03-19T13:48:49.779Z,14.20
2018-03-19T13:51:18.041Z,13.60
2018-03-19T13:53:46.307Z,15.33
2018-03-19T13:56:14.547Z,14.87
2018-03-19T13:58:43.564Z,17.23
2018-03-19T14:01:11.804Z,14.77
2018-03-19T14:03:40.823Z,13.80
2018-03-19T14:06:09.073Z,14.50
2018-03-19T14:08:38.086Z,14.50
2018-03-19T14:11:06.330Z,15.70
2018-03-19T14:13:34.591Z,13.13
2018-03-19T14:16:02.830Z,15.33
2018-03-19T14:18:31.085Z,15.40
2018-03-19T14:20:59.342Z,15.00
2018-03-19T14:23:28.355Z,13.23
2018-03-19T14:25:56.609Z,14.00
2018-03-19T14:28:25.626Z,15.17
2018-03-19T14:30:53.878Z,13.83
2018-03-19T14:33:22.898Z,16.47
2018-03-19T14:35:51.185Z,15.63
2018-03-19T14:38:19.404Z,14.07
2018-03-19T14:40:47.660Z,15.13
2018-03-19T14:43:15.912Z,14.90
2018-03-19T14:45:44.151Z,14.50
2018-03-19T14:48:13.178Z,14.57
2018-03-19T14:50:41.667Z,14.87
2018-03-19T14:53:09.712Z,15.07
2018-03-19T14:55:38.727Z,14.80
2018-03-19T14:58:06.977Z,14.30
2018-03-19T15:00:35.999Z,16.63
2018-03-19T15:03:04.243Z,13.43
2018-03-19T15:05:33.264Z,15.60
2018-03-19T15:08:01.505Z,14.40
2018-03-19T15:10:30.526Z,13.40
2018-03-19T15:12:58.779Z,19.03
2018-03-19T15:15:27.802Z,15.47
2018-03-19T15:17:56.056Z,16.33
2018-03-19T15:20:24.314Z,13.60
2018-03-19T15:22:53.330Z,15.80
2018-03-19T15:25:21.583Z,12.93
2018-03-19T15:27:50.598Z,15.50
2018-03-19T15:30:18.866Z,15.27
2018-03-19T15:32:47.118Z,16.53
2018-03-19T15:35:16.138Z,15.17
2018-03-19T15:37:44.390Z,17.03
2018-03-19T15:40:13.407Z,16.10
2018-03-19T15:42:41.662Z,21.33
2018-03-19T15:45:10.686Z,15.37
2018-03-19T15:47:38.939Z,18.50
2018-03-19T15:50:07.971Z,15.60
2018-03-19T15:52:36.236Z,19.93
2018-03-19T15:55:04.477Z,18.50
2018-03-19T15:57:33.514Z,15.43
2018-03-19T16:00:01.768Z,18.73
2018-03-19T16:02:30.025Z,19.13
2018-03-19T16:04:59.047Z,19.80
2018-03-19T16:07:27.304Z,16.07
2018-03-19T16:09:55.555Z,19.00
2018-03-19T16:12:24.582Z,16.80
2018-03-19T16:14:52.835Z,17.73
2018-03-19T16:17:21.867Z,17.37
2018-03-19T16:19:50.123Z,20.73
2018-03-19T16:22:18.382Z,22.42
2018-03-19T16:24:47.405Z,19.02
2018-03-19T16:27:15.720Z,18.83
2018-03-19T16:29:43.919Z,21.83
2018-03-19T16:32:12.955Z,20.58
2018-03-19T16:34:41.212Z,17.70
2018-03-19T16:37:09.474Z,19.62
2018-03-19T16:39:37.742Z,18.25
2018-03-19T16:42:06.764Z,23.05
2018-03-19T16:44:35.022Z,17.17
2018-03-19T16:47:03.275Z,19.08
2018-03-19T16:49:32.303Z,17.95
2018-03-19T16:52:00.551Z,17.98
2018-03-19T16:54:29.577Z,19.17
2018-03-19T16:56:57.833Z,18.17
2018-03-19T16:59:26.862Z,22.60
2018-03-19T17:01:55.118Z,22.10
2018-03-19T17:04:23.398Z,20.15
2018-03-19T17:06:51.655Z,20.62
2018-03-19T17:09:19.923Z,19.12
2018-03-19T17:11:48.937Z,16.12
2018-03-19T17:14:17.201Z,21.17
2018-03-19T17:16:45.459Z,16.58
2018-03-19T17:19:14.499Z,20.30
2018-03-19T17:21:42.759Z,16.45
2018-03-19T17:24:11.018Z,21.92
2018-03-19T17:26:40.055Z,20.92
2018-03-19T17:29:08.320Z,25.20
2018-03-19T17:31:36.591Z,19.33
2018-03-19T17:34:04.856Z,22.70
2018-03-19T17:36:33.120Z,23.23
2018-03-19T17:39:01.411Z,21.05
2018-03-19T17:41:29.686Z,20.50
2018-03-19T17:43:57.940Z,17.52
2018-03-19T17:46:26.977Z,17.52
2018-03-19T17:48:55.231Z,16.23
2018-03-19T17:51:23.508Z,19.30
2018-03-19T17:53:51.772Z,17.95
2018-03-19T17:56:20.042Z,19.45
2018-03-19T17:58:48.312Z,18.20
2018-03-19T18:01:17.339Z,21.12
2018-03-19T18:03:45.595Z,22.08
2018-03-19T18:06:13.866Z,18.62
2018-03-19T18:08:42.124Z,17.20
2018-03-19T18:11:11.160Z,20.08
2018-03-19T18:13:39.422Z,22.65
2018-03-19T18:16:07.688Z,22.23
2018-03-19T18:18:35.946Z,18.33
2018-03-19T18:21:04.978Z,20.58
2018-03-19T18:23:33.240Z,20.27
2018-03-19T18:26:01.524Z,21.45
2018-03-19T18:28:29.786Z,26.37
2018-03-19T18:33:55.026Z,28.12
2018-03-19T18:36:23.291Z,26.80
2018-03-19T18:38:51.554Z,20.60
2018-03-19T18:41:19.820Z,25.75
2018-03-19T18:43:48.847Z,24.80
2018-03-19T18:46:17.107Z,27.23
2018-03-19T18:48:45.379Z,19.83
2018-03-19T18:51:13.634Z,23.10
2018-03-19T18:53:42.669Z,20.35
2018-03-19T18:56:10.930Z,17.77
2018-03-19T18:58:39.195Z,23.58
2018-03-19T19:01:07.450Z,19.00
2018-03-19T19:03:35.711Z,27.48
2018-03-19T19:06:03.967Z,30.02
2018-03-19T19:08:32.235Z,22.02
2018-03-19T19:11:00.495Z,25.48
2018-03-19T19:13:28.773Z,23.45
2018-03-19T19:15:57.026Z,28.25
2018-03-19T19:18:25.292Z,23.58
2018-03-19T19:20:54.319Z,38.75
2018-03-19T19:23:22.574Z,24.65
2018-03-19T19:25:50.834Z,20.30
2018-03-19T19:28:19.867Z,25.70
2018-03-19T19:30:48.118Z,27.62
2018-03-19T19:33:16.382Z,27.33
2018-03-19T19:35:45.400Z,27.25
2018-03-19T19:38:13.670Z,22.75
2018-03-19T19:40:41.927Z,26.35
2018-03-19T19:43:10.947Z,22.48
2018-03-19T19:45:39.217Z,25.80
2018-03-19T19:48:07.474Z,22.35
2018-03-19T19:50:36.500Z,21.77
2018-03-19T19:53:04.756Z,31.00
2018-03-19T19:55:33.018Z,21.08
2018-03-19T19:58:02.043Z,29.05
2018-03-19T20:00:30.305Z,25.23
2018-03-19T20:02:58.558Z,29.27
2018-03-19T20:05:27.592Z,27.23
2018-03-19T20:07:55.847Z,26.48
2018-03-19T20:10:24.117Z,27.37
2018-03-19T20:12:53.131Z,26.83
2018-03-19T20:15:21.400Z,24.10
2018-03-19T20:17:49.646Z,20.85
2018-03-19T20:20:18.670Z,28.35
2018-03-19T20:22:46.927Z,27.50
2018-03-19T20:25:15.946Z,24.52
2018-03-19T20:27:44.220Z,25.17
2018-03-19T20:30:12.471Z,19.95
2018-03-19T20:32:41.503Z,21.75
2018-03-19T20:35:09.763Z,21.23
2018-03-19T20:37:38.026Z,27.33
2018-03-19T20:40:06.300Z,19.92
2018-03-19T20:42:35.310Z,23.02
2018-03-19T20:45:03.579Z,27.55
2018-03-19T20:47:31.841Z,25.52
2018-03-19T20:50:00.099Z,25.33
2018-03-19T20:52:28.371Z,26.60
2018-03-19T20:54:57.400Z,25.85
2018-03-19T20:57:25.656Z,26.92
2018-03-19T20:59:54.675Z,23.00
2018-03-19T21:02:22.941Z,20.55
2018-03-19T21:04:51.204Z,20.00
2018-03-19T21:07:19.490Z,22.00
2018-03-19T21:09:47.749Z,25.80
2018-03-19T21:12:16.766Z,25.08
2018-03-19T21:14:45.034Z,24.67
2018-03-19T21:17:13.287Z,23.55
2018-03-19T21:19:42.306Z,17.65
2018-03-19T21:22:10.574Z,17.52
2018-03-19T21:24:38.830Z,25.27
2018-03-19T21:27:07.856Z,21.10
2018-03-19T21:29:36.119Z,26.15
2018-03-19T21:32:04.379Z,23.65
2018-03-19T21:34:33.411Z,25.27
2018-03-19T21:37:01.675Z,24.60
2018-03-19T21:39:29.944Z,29.15
2018-03-19T21:41:58.197Z,22.42
2018-03-19T21:44:27.227Z,22.48
2018-03-19T21:46:55.482Z,21.42
2018-03-19T21:49:25.126Z,24.87
2018-03-19T21:51:53.391Z,24.15
2018-03-19T21:54:21.660Z,20.02
2018-03-19T21:56:49.910Z,22.50
2018-03-19T21:59:18.197Z,22.65
2018-03-19T22:01:46.456Z,17.50
2018-03-19T22:04:15.489Z,26.60
2018-03-19T22:06:43.753Z,23.38
2018-03-19T22:09:12.019Z,23.92
2018-03-19T22:11:40.275Z,22.92
2018-03-19T22:14:09.304Z,20.45
2018-03-19T22:16:37.584Z,26.67
2018-03-19T22:19:05.836Z,25.48
2018-03-19T22:21:34.109Z,25.20
2018-03-19T22:24:02.360Z,25.65
2018-03-19T22:26:31.406Z,27.05
2018-03-19T22:28:59.658Z,26.08
2018-03-19T22:31:27.930Z,29.80
2018-03-19T22:33:56.194Z,24.25
2018-03-19T22:36:25.213Z,22.77
2018-03-19T22:38:53.470Z,21.25
2018-03-19T22:41:24.736Z,25.90
2018-03-19T22:43:53.018Z,23.87
2018-03-19T22:46:21.286Z,25.50
2018-03-19T22:48:49.541Z,23.20
2018-03-19T22:51:18.566Z,25.90
2018-03-19T22:53:46.823Z,20.98
2018-03-19T22:56:15.094Z,28.90
2018-03-19T22:58:43.341Z,23.27
2018-03-19T23:01:12.375Z,22.85
2018-03-19T23:03:40.631Z,27.55
2018-03-19T23:06:08.894Z,22.62
2018-03-19T23:08:37.954Z,26.85
2018-03-19T23:11:06.182Z,23.92
2018-03-19T23:13:35.146Z,29.98
2018-03-19T23:16:03.434Z,31.60
2018-03-19T23:18:32.450Z,27.52
2018-03-19T23:21:00.705Z,24.35
2018-03-19T23:23:28.967Z,26.60
2018-03-19T23:25:58.292Z,24.27
2018-03-19T23:28:26.570Z,26.92
2018-03-19T23:30:55.115Z,25.00
2018-03-19T23:33:23.380Z,22.75
2018-03-19T23:35:51.634Z,23.38
2018-03-19T23:38:19.922Z,33.35
2018-03-19T23:40:48.373Z,25.12
2018-03-19T23:43:16.643Z,32.13
2018-03-19T23:45:44.895Z,36.08
2018-03-19T23:48:13.923Z,25.77
2018-03-19T23:50:42.177Z,27.02
2018-03-19T23:53:10.452Z,22.75
2018-03-19T23:55:38.712Z,34.38
2018-03-19T23:58:07.735Z,27.08
